Pagrindinis puslapis
METAR-TAF:

METAR-TAF

Oro uostai :

Mitiga International Airport

Tripolis, Libija

platuma: 32-54N, ilguma: 13-17E, Aukštis: 11 m

METAR: trūkstamas

Laikas: 06:50 (04:50 UTC)

Prognozė

Ataskaita buvo paskelbta 5 valandos ir 50 minutes, ne 23:00 UTC
Prognozė galioja nuo 18 metu 00 UTC su 18 metu 24 UTC
Vėjas 2 kt nuo kintamojo kryptimis
Matomumas: 8000 m
Tikimybė 30% :
Laikinai
nuo 18 metu 02 UTC su 18 metu 06 UTC
Matomumas: 5000 m
rūkana
Tapsmas
nuo 18 metu 12 UTC su 18 metu 14 UTC
Vėjas 10 kt iš Šiaurės
Tapsmas
nuo 18 metu 18 UTC su 18 metu 20 UTC
Vėjas 10 kt iš Rytų

TAF: HLLM 172300Z 1800/1824 VRB02KT 8000 NSC PROB30 TEMPO 1802/1806 5000 BR BECMG 1812/1814 36010KT BECMG 1818/1820 09010KT

Orai ataskaitas ir orų prognozės (METAR, TAF).

turimą stotys yra geltonos ir raudonos taškus žemėlapyje.

Perkelti pele per norėdami pamatyti stoties vardą.

Tada spustelėkite, norėdami matyti oro stebėjimo ir prognozės.

Norėdami pakeisti žemėlapį: spustelėkite ant žalios mygtukų su juodo kryžiaus žemyn,; žalią mygtuką su brūkšneliu, jei norite nutolinti; arba žalių rodyklių gretimoms žemėlapius.


METAR-TAF: